createdAt,value
2022-08-04T00:00:13.439Z,25.16
2022-08-04T00:02:55.714Z,25.14
2022-08-04T00:05:36.938Z,25.01
2022-08-04T00:08:14.272Z,24.96
2022-08-04T00:10:49.861Z,25.04
2022-08-04T00:13:23.340Z,25.02
2022-08-04T00:15:54.271Z,24.95
2022-08-04T00:18:27.653Z,24.86
2022-08-04T00:21:01.175Z,24.88
2022-08-04T00:24:11.118Z,24.80
2022-08-04T00:26:21.980Z,24.70
2022-08-04T00:28:50.800Z,24.15
2022-08-04T00:31:20.630Z,23.81
2022-08-04T00:34:12.077Z,23.91
2022-08-04T00:36:44.671Z,23.85
2022-08-04T00:39:15.893Z,23.94
2022-08-04T00:41:57.077Z,23.91
2022-08-04T00:44:39.157Z,24.06
2022-08-04T00:47:20.416Z,24.08
2022-08-04T00:50:08.573Z,24.07
2022-08-04T00:53:03.654Z,24.20
2022-08-04T00:55:54.732Z,24.27
2022-08-04T00:58:30.719Z,24.38
2022-08-04T01:01:02.715Z,24.48
2022-08-04T01:03:49.447Z,24.57
2022-08-04T01:06:36.532Z,24.59
2022-08-04T01:09:25.867Z,24.61
2022-08-04T01:12:20.128Z,24.70
2022-08-04T01:15:04.455Z,24.59
2022-08-04T01:17:44.710Z,24.63
2022-08-04T01:20:18.481Z,24.64
2022-08-04T01:23:25.081Z,24.59
2022-08-04T01:26:42.715Z,24.48
2022-08-04T01:29:15.823Z,24.42
2022-08-04T01:31:55.063Z,24.46
2022-08-04T01:34:25.032Z,24.40
2022-08-04T01:37:00.846Z,24.32
2022-08-04T01:39:41.644Z,24.31
2022-08-04T01:42:10.933Z,24.19
2022-08-04T01:44:42.641Z,24.16
2022-08-04T01:47:11.246Z,24.08
2022-08-04T01:49:41.189Z,24.08
2022-08-04T01:52:11.121Z,23.94
2022-08-04T01:54:43.151Z,23.92
2022-08-04T01:57:38.851Z,23.43
2022-08-04T02:00:02.151Z,23.14
2022-08-04T02:02:32.387Z,22.97
2022-08-04T02:05:00.492Z,23.14
2022-08-04T02:07:48.858Z,23.31
2022-08-04T02:10:28.183Z,23.35
2022-08-04T02:13:10.640Z,23.32
2022-08-04T02:15:54.519Z,23.33
2022-08-04T02:18:26.027Z,23.31
2022-08-04T02:20:59.238Z,23.05
2022-08-04T02:23:32.693Z,23.02
2022-08-04T02:26:03.451Z,22.86
2022-08-04T02:28:36.511Z,22.80
2022-08-04T02:31:19.709Z,22.83
2022-08-04T02:33:57.153Z,22.95
2022-08-04T02:36:31.595Z,23.05
2022-08-04T02:39:01.850Z,23.05
2022-08-04T02:41:31.559Z,22.93
2022-08-04T02:44:01.618Z,22.79
2022-08-04T02:46:32.237Z,22.78
2022-08-04T02:49:03.374Z,22.79
2022-08-04T02:51:35.409Z,22.92
2022-08-04T02:54:08.362Z,23.08
2022-08-04T02:56:40.970Z,23.02
2022-08-04T02:59:11.227Z,23.02
2022-08-04T03:01:56.943Z,22.66
2022-08-04T03:04:47.252Z,22.37
2022-08-04T03:07:47.809Z,22.23
2022-08-04T03:10:26.617Z,22.19
2022-08-04T03:13:29.139Z,22.24
2022-08-04T03:16:30.255Z,22.34
2022-08-04T03:19:27.793Z,22.37
2022-08-04T03:22:25.098Z,22.47
2022-08-04T03:25:34.732Z,22.74
2022-08-04T03:28:31.722Z,22.83
2022-08-04T03:31:20.311Z,22.84
2022-08-04T03:34:04.425Z,22.78
2022-08-04T03:36:59.274Z,22.67
2022-08-04T03:39:57.197Z,22.60
2022-08-04T03:42:58.652Z,22.51
2022-08-04T03:46:07.043Z,22.67
2022-08-04T03:48:54.874Z,22.68
2022-08-04T03:51:56.604Z,22.65
2022-08-04T03:54:45.176Z,22.54
2022-08-04T03:57:35.056Z,22.55
2022-08-04T04:00:10.024Z,22.42
2022-08-04T04:03:28.902Z,22.42
2022-08-04T04:06:41.378Z,22.44
2022-08-04T04:09:52.336Z,22.43
2022-08-04T04:12:36.163Z,22.40
2022-08-04T04:15:25.257Z,22.22
2022-08-04T04:18:17.234Z,21.97
2022-08-04T04:21:26.879Z,22.22
2022-08-04T04:24:35.466Z,22.14
2022-08-04T04:27:14.431Z,22.03
2022-08-04T04:30:04.941Z,22.16
2022-08-04T04:32:49.293Z,22.18
2022-08-04T04:35:32.281Z,21.98
2022-08-04T04:38:30.198Z,22.33
2022-08-04T04:41:07.178Z,22.14
2022-08-04T04:43:55.783Z,22.11
2022-08-04T04:46:36.358Z,22.05
2022-08-04T04:49:15.663Z,21.64
2022-08-04T04:51:45.620Z,21.80
2022-08-04T04:54:24.488Z,21.91
2022-08-04T04:57:14.400Z,21.78
2022-08-04T04:59:48.897Z,22.00
2022-08-04T05:02:36.655Z,22.22
2022-08-04T05:05:43.040Z,22.20
2022-08-04T05:08:43.868Z,22.33
2022-08-04T05:11:57.337Z,22.37
2022-08-04T05:14:41.041Z,22.34
2022-08-04T05:17:18.179Z,22.47
2022-08-04T05:19:54.750Z,22.61
2022-08-04T05:22:30.586Z,22.67
2022-08-04T05:25:04.819Z,22.78
2022-08-04T05:27:41.910Z,22.81
2022-08-04T05:30:11.868Z,22.91
2022-08-04T05:32:49.564Z,23.00
2022-08-04T05:35:38.988Z,23.08
2022-08-04T05:38:21.484Z,23.18
2022-08-04T05:40:52.142Z,23.35
2022-08-04T05:43:21.603Z,23.44
2022-08-04T05:45:54.212Z,23.57
2022-08-04T05:48:22.521Z,23.63
2022-08-04T05:50:58.953Z,23.62
2022-08-04T05:53:29.587Z,23.66
2022-08-04T05:55:59.984Z,23.71
2022-08-04T05:58:30.637Z,23.75
2022-08-04T06:01:00.611Z,23.82
2022-08-04T06:03:31.208Z,23.88
2022-08-04T06:06:02.808Z,23.90
2022-08-04T06:08:31.518Z,23.97
2022-08-04T06:11:05.512Z,24.01
2022-08-04T06:13:51.106Z,24.13
2022-08-04T06:16:28.590Z,24.31
2022-08-04T06:20:03.222Z,24.38
2022-08-04T06:21:53.497Z,24.46
2022-08-04T06:24:25.799Z,24.57
2022-08-04T06:26:56.116Z,24.64
2022-08-04T06:29:29.481Z,24.69
2022-08-04T06:32:30.733Z,24.68
2022-08-04T06:34:48.651Z,24.72
2022-08-04T06:37:24.150Z,24.81
2022-08-04T06:40:13.990Z,24.84
2022-08-04T06:42:59.520Z,24.84
2022-08-04T06:45:34.472Z,24.83
2022-08-04T06:48:04.592Z,24.83
2022-08-04T06:51:30.389Z,24.96
2022-08-04T06:53:23.887Z,25.02
2022-08-04T06:55:52.822Z,25.22
2022-08-04T06:58:22.936Z,25.17
2022-08-04T07:00:52.325Z,25.44
2022-08-04T07:03:21.827Z,25.41
2022-08-04T07:05:55.211Z,25.46
2022-08-04T07:08:29.647Z,25.58
2022-08-04T07:10:59.770Z,25.68
2022-08-04T07:13:29.016Z,25.79
2022-08-04T07:16:00.018Z,25.86
2022-08-04T07:18:28.485Z,26.03
2022-08-04T07:20:56.750Z,26.20
2022-08-04T07:23:26.440Z,26.21
2022-08-04T07:26:10.853Z,26.38
2022-08-04T07:28:42.399Z,26.51
2022-08-04T07:31:33.892Z,26.73
2022-08-04T07:34:16.838Z,26.96
2022-08-04T07:36:53.120Z,27.21
2022-08-04T07:39:27.406Z,27.15
2022-08-04T07:42:01.219Z,27.29
2022-08-04T07:44:31.040Z,27.38
2022-08-04T07:46:59.801Z,27.56
2022-08-04T07:49:56.028Z,27.63
2022-08-04T07:52:17.174Z,27.67
2022-08-04T07:54:45.708Z,27.75
2022-08-04T07:57:19.673Z,27.91
2022-08-04T08:00:03.587Z,27.96
2022-08-04T08:02:40.799Z,28.03
2022-08-04T08:05:10.630Z,28.20
2022-08-04T08:07:51.043Z,28.15
2022-08-04T08:10:23.541Z,28.24
2022-08-04T08:12:54.516Z,28.29
2022-08-04T08:15:23.285Z,28.26
2022-08-04T08:17:59.690Z,28.36
2022-08-04T08:20:32.883Z,28.52
2022-08-04T08:23:02.705Z,28.57
2022-08-04T08:25:32.524Z,28.50
2022-08-04T08:28:04.765Z,28.66
2022-08-04T08:30:34.217Z,28.88
2022-08-04T08:33:05.766Z,29.23
2022-08-04T08:35:53.319Z,29.04
2022-08-04T08:38:35.025Z,29.14
2022-08-04T08:41:24.772Z,29.26
2022-08-04T08:44:19.287Z,29.60
2022-08-04T08:47:12.587Z,29.57
2022-08-04T08:50:05.116Z,29.67
2022-08-04T08:53:02.984Z,29.62
2022-08-04T08:55:43.755Z,29.72
2022-08-04T08:58:33.917Z,29.94
2022-08-04T09:01:11.369Z,30.18
2022-08-04T09:04:28.823Z,30.24
2022-08-04T09:07:14.693Z,30.29
2022-08-04T09:09:55.763Z,30.37
2022-08-04T09:12:29.260Z,30.70
2022-08-04T09:15:10.318Z,30.59
2022-08-04T09:17:47.047Z,30.64
2022-08-04T09:20:26.802Z,30.96
2022-08-04T09:23:07.969Z,31.10
2022-08-04T09:25:42.119Z,30.98
2022-08-04T09:28:43.485Z,31.55
2022-08-04T09:31:14.687Z,31.84
2022-08-04T09:33:52.442Z,31.98
2022-08-04T09:36:33.667Z,32.11
2022-08-04T09:39:10.627Z,32.25
2022-08-04T09:41:48.835Z,32.65
2022-08-04T09:44:48.852Z,32.71
2022-08-04T09:47:25.254Z,32.87
2022-08-04T09:50:24.602Z,33.10
2022-08-04T09:53:00.513Z,33.38
2022-08-04T09:55:54.241Z,33.81
2022-08-04T09:58:40.407Z,34.17
2022-08-04T10:01:12.842Z,34.67
2022-08-04T10:03:46.254Z,35.04
2022-08-04T10:06:37.796Z,36.47
2022-08-04T10:09:20.683Z,38.31
2022-08-04T10:12:00.613Z,40.05
2022-08-04T10:14:39.999Z,41.65
2022-08-04T10:17:43.603Z,42.94
2022-08-04T10:20:33.922Z,43.80
2022-08-04T10:23:24.734Z,43.39
2022-08-04T10:26:07.017Z,42.18
2022-08-04T10:28:44.821Z,41.93
2022-08-04T10:31:20.493Z,41.01
2022-08-04T10:33:54.388Z,41.18
2022-08-04T10:36:28.233Z,41.12
2022-08-04T10:39:04.665Z,40.64
2022-08-04T10:41:39.453Z,39.99
2022-08-04T10:44:24.668Z,38.59
2022-08-04T10:46:56.794Z,38.62
2022-08-04T10:49:32.090Z,38.19
2022-08-04T10:52:06.754Z,38.58
2022-08-04T10:54:48.023Z,38.83
2022-08-04T10:57:24.809Z,39.61
2022-08-04T11:00:03.252Z,40.38
2022-08-04T11:02:40.898Z,40.38
2022-08-04T11:05:25.945Z,40.43
2022-08-04T11:07:59.974Z,40.87
2022-08-04T11:10:35.393Z,41.22
2022-08-04T11:13:29.456Z,42.31
2022-08-04T11:15:59.905Z,43.30
2022-08-04T11:18:35.275Z,44.42
2022-08-04T11:21:12.168Z,44.79
2022-08-04T11:23:48.006Z,44.04
2022-08-04T11:26:25.854Z,44.20
2022-08-04T11:29:03.998Z,44.27
2022-08-04T11:31:34.375Z,44.21
2022-08-04T11:34:07.185Z,45.04
2022-08-04T11:36:40.953Z,45.35
2022-08-04T11:39:13.966Z,44.37
2022-08-04T11:41:49.638Z,43.93
2022-08-04T11:44:24.151Z,44.00
2022-08-04T11:46:55.016Z,43.92
2022-08-04T11:49:30.745Z,41.91
2022-08-04T11:52:01.158Z,42.17
2022-08-04T11:54:29.884Z,43.35
2022-08-04T11:56:59.253Z,43.22
2022-08-04T11:59:30.209Z,42.37
2022-08-04T12:02:20.679Z,41.72
2022-08-04T12:04:57.636Z,42.26
2022-08-04T12:07:41.683Z,43.44
2022-08-04T12:10:41.000Z,43.98
2022-08-04T12:13:21.878Z,44.16
2022-08-04T12:15:58.404Z,43.78
2022-08-04T12:18:35.511Z,43.11
2022-08-04T12:21:12.089Z,42.19
2022-08-04T12:23:45.052Z,42.20
2022-08-04T12:26:21.845Z,41.93
2022-08-04T12:29:12.032Z,41.80
2022-08-04T12:31:46.694Z,42.84
2022-08-04T12:34:19.069Z,43.73
2022-08-04T12:36:56.947Z,42.03
2022-08-04T12:39:28.225Z,42.16
2022-08-04T12:42:03.619Z,43.49
2022-08-04T12:44:40.211Z,43.86
2022-08-04T12:47:28.550Z,43.85
2022-08-04T12:50:04.232Z,43.87
2022-08-04T12:53:01.741Z,42.98
2022-08-04T12:55:30.207Z,43.03
2022-08-04T12:57:59.576Z,42.36
2022-08-04T13:00:39.990Z,40.74
2022-08-04T13:03:12.908Z,41.67
2022-08-04T13:05:42.825Z,42.46
2022-08-04T13:08:13.148Z,42.22
2022-08-04T13:10:43.587Z,41.62
2022-08-04T13:13:18.270Z,41.64
2022-08-04T13:15:58.775Z,41.12
2022-08-04T13:18:32.105Z,41.36
2022-08-04T13:21:19.627Z,41.36
2022-08-04T13:24:10.293Z,41.11
2022-08-04T13:26:53.940Z,41.04
2022-08-04T13:29:59.902Z,41.04
2022-08-04T13:32:22.451Z,41.04
2022-08-04T13:34:54.375Z,41.20
2022-08-04T13:37:27.656Z,40.93
2022-08-04T13:39:58.556Z,40.74
2022-08-04T13:42:28.343Z,40.30
2022-08-04T13:45:01.089Z,40.51
2022-08-04T13:47:33.474Z,40.56
2022-08-04T13:50:12.166Z,40.28
2022-08-04T13:52:41.586Z,40.26
2022-08-04T13:55:18.922Z,40.18
2022-08-04T13:57:51.513Z,39.88
2022-08-04T14:00:29.341Z,39.95
2022-08-04T14:03:23.170Z,39.43
2022-08-04T14:06:26.779Z,39.51
2022-08-04T14:08:56.884Z,39.37
2022-08-04T14:12:06.828Z,39.13
2022-08-04T14:14:25.486Z,39.19
2022-08-04T14:17:02.424Z,39.07
2022-08-04T14:19:49.725Z,39.17
2022-08-04T14:22:34.788Z,39.44
2022-08-04T14:25:09.265Z,39.25
2022-08-04T14:27:46.193Z,39.16
2022-08-04T14:30:26.013Z,38.99
2022-08-04T14:34:02.902Z,39.10
2022-08-04T14:36:03.851Z,39.23
2022-08-04T14:38:52.296Z,39.24
2022-08-04T14:41:26.172Z,39.44
2022-08-04T14:43:56.223Z,39.44
2022-08-04T14:46:36.046Z,39.21
2022-08-04T14:49:09.972Z,39.14
2022-08-04T14:51:43.829Z,39.25
2022-08-04T14:54:18.696Z,39.26
2022-08-04T14:56:57.004Z,39.20
2022-08-04T14:59:30.774Z,38.96
2022-08-04T15:02:01.780Z,38.38
2022-08-04T15:04:33.161Z,38.04
2022-08-04T15:07:06.614Z,38.39
2022-08-04T15:09:36.995Z,38.59
2022-08-04T15:12:07.637Z,38.59
2022-08-04T15:14:38.477Z,38.44
2022-08-04T15:17:12.349Z,38.39
2022-08-04T15:19:56.673Z,38.14
2022-08-04T15:22:26.755Z,38.07
2022-08-04T15:24:56.028Z,38.17
2022-08-04T15:27:27.373Z,38.26
2022-08-04T15:30:01.882Z,38.37
2022-08-04T15:32:33.032Z,38.26
2022-08-04T15:35:06.541Z,38.20
2022-08-04T15:37:44.437Z,38.21
2022-08-04T15:40:15.449Z,38.13
2022-08-04T15:42:48.869Z,38.11
2022-08-04T15:45:23.683Z,37.85
2022-08-04T15:48:32.562Z,37.16
2022-08-04T15:51:14.632Z,36.79
2022-08-04T15:54:24.503Z,36.71
2022-08-04T15:57:02.742Z,36.92
2022-08-04T15:59:57.196Z,36.64
2022-08-04T16:02:46.037Z,36.62
2022-08-04T16:05:39.255Z,36.65
2022-08-04T16:08:15.174Z,36.78
2022-08-04T16:10:49.287Z,36.83
2022-08-04T16:13:25.017Z,36.83
2022-08-04T16:15:54.937Z,36.74
2022-08-04T16:18:41.370Z,36.63
2022-08-04T16:21:20.722Z,36.59
2022-08-04T16:24:15.043Z,36.73
2022-08-04T16:26:54.403Z,36.83
2022-08-04T16:29:31.768Z,36.69
2022-08-04T16:32:15.569Z,36.48
2022-08-04T16:34:54.299Z,36.47
2022-08-04T16:37:25.990Z,36.31
2022-08-04T16:40:34.025Z,36.12
2022-08-04T16:43:07.129Z,35.97
2022-08-04T16:45:48.367Z,35.90
2022-08-04T16:48:17.853Z,35.84
2022-08-04T16:51:07.987Z,35.67
2022-08-04T16:53:53.137Z,35.72
2022-08-04T16:56:33.388Z,35.70
2022-08-04T16:59:08.364Z,35.62
2022-08-04T17:01:38.947Z,35.69
2022-08-04T17:04:07.679Z,35.50
2022-08-04T17:06:38.626Z,35.39
2022-08-04T17:09:10.447Z,35.28
2022-08-04T17:11:38.617Z,35.16
2022-08-04T17:14:06.912Z,35.02
2022-08-04T17:16:39.410Z,34.94
2022-08-04T17:19:24.422Z,34.96
2022-08-04T17:22:04.771Z,34.86
2022-08-04T17:24:35.279Z,34.87
2022-08-04T17:28:09.209Z,34.62
2022-08-04T17:29:55.349Z,34.51
2022-08-04T17:32:25.397Z,34.35
2022-08-04T17:34:57.467Z,34.11
2022-08-04T17:37:39.672Z,33.91
2022-08-04T17:44:04.256Z,33.55
2022-08-04T17:46:31.050Z,33.64
2022-08-04T17:49:06.204Z,33.49
2022-08-04T17:52:05.732Z,33.56
2022-08-04T17:57:23.133Z,33.19
2022-08-04T17:59:56.148Z,33.26
2022-08-04T18:02:33.562Z,33.40
2022-08-04T18:05:11.310Z,33.19
2022-08-04T18:08:40.213Z,33.21
2022-08-04T18:10:51.978Z,33.12
2022-08-04T18:13:23.239Z,33.15
2022-08-04T18:15:51.572Z,33.02
2022-08-04T18:18:23.249Z,32.98
2022-08-04T18:20:53.363Z,33.33
2022-08-04T18:23:31.838Z,33.35
2022-08-04T18:26:02.098Z,33.20
2022-08-04T18:28:33.778Z,33.00
2022-08-04T18:31:02.932Z,32.95
2022-08-04T18:33:40.205Z,32.80
2022-08-04T18:36:33.708Z,32.81
2022-08-04T18:39:12.925Z,32.67
2022-08-04T18:41:51.621Z,32.69
2022-08-04T18:44:31.973Z,32.80
2022-08-04T18:47:22.208Z,33.44
2022-08-04T18:51:00.733Z,32.88
2022-08-04T18:52:41.904Z,32.80
2022-08-04T18:55:55.475Z,32.64
2022-08-04T19:00:53.554Z,32.11
2022-08-04T19:03:22.950Z,32.08
2022-08-04T19:05:51.511Z,32.15
2022-08-04T19:08:34.182Z,31.94
2022-08-04T19:11:16.718Z,31.83
2022-08-04T19:13:54.512Z,31.70
2022-08-04T19:16:26.763Z,31.65
2022-08-04T19:18:55.513Z,31.63
2022-08-04T19:21:59.705Z,31.56
2022-08-04T19:24:31.054Z,31.65
2022-08-04T19:27:08.442Z,31.65
2022-08-04T19:29:43.123Z,31.62
2022-08-04T19:32:15.212Z,31.74
2022-08-04T19:34:47.243Z,31.72
2022-08-04T19:37:57.492Z,31.73
2022-08-04T19:40:10.394Z,31.72
2022-08-04T19:42:40.369Z,31.75
2022-08-04T19:45:09.846Z,31.68
2022-08-04T19:48:16.096Z,31.75
2022-08-04T19:50:32.767Z,31.77
2022-08-04T19:53:01.587Z,31.73
2022-08-04T19:55:37.627Z,31.74
2022-08-04T19:58:08.828Z,31.69
2022-08-04T20:00:38.345Z,31.56
2022-08-04T20:03:11.331Z,31.51
2022-08-04T20:05:53.797Z,31.49
2022-08-04T20:08:24.907Z,31.45
2022-08-04T20:10:54.871Z,31.43
2022-08-04T20:13:25.514Z,31.41
2022-08-04T20:15:59.380Z,31.34
2022-08-04T20:18:35.580Z,31.39
2022-08-04T20:23:55.844Z,31.18
2022-08-04T20:26:25.460Z,31.15
2022-08-04T20:28:54.744Z,31.11
2022-08-04T20:31:23.986Z,31.15
2022-08-04T20:33:59.868Z,31.19
2022-08-04T20:36:28.049Z,31.20
2022-08-04T20:38:56.299Z,31.36
2022-08-04T20:41:25.902Z,31.10
2022-08-04T20:44:04.806Z,31.02
2022-08-04T20:46:38.639Z,30.97
2022-08-04T20:49:06.836Z,30.86
2022-08-04T20:51:40.068Z,30.74
2022-08-04T20:54:16.320Z,30.79
2022-08-04T20:56:51.256Z,30.93
2022-08-04T20:59:19.724Z,30.77
2022-08-04T21:01:49.646Z,30.90
2022-08-04T21:04:35.779Z,30.73
2022-08-04T21:07:06.242Z,30.58
2022-08-04T21:09:37.872Z,30.52
2022-08-04T21:12:28.586Z,30.50
2022-08-04T21:15:14.005Z,30.53
2022-08-04T21:17:56.624Z,30.37
2022-08-04T21:20:27.623Z,30.40
2022-08-04T21:22:59.526Z,30.39
2022-08-04T21:25:30.012Z,30.39
2022-08-04T21:28:03.997Z,30.31
2022-08-04T21:30:52.222Z,30.24
2022-08-04T21:33:20.929Z,30.56
2022-08-04T21:35:54.101Z,30.24
2022-08-04T21:38:25.189Z,30.09
2022-08-04T21:41:01.553Z,29.92
2022-08-04T21:43:42.762Z,29.74
2022-08-04T21:46:11.844Z,29.77
2022-08-04T21:48:42.335Z,29.79
2022-08-04T21:51:56.832Z,29.88
2022-08-04T21:54:04.752Z,29.90
2022-08-04T21:56:33.721Z,30.03
2022-08-04T21:59:08.813Z,29.99
2022-08-04T22:01:52.390Z,29.87
2022-08-04T22:04:23.127Z,30.01
2022-08-04T22:06:51.920Z,29.81
2022-08-04T22:09:22.320Z,29.83
2022-08-04T22:11:51.936Z,29.64
2022-08-04T22:14:29.140Z,29.57
2022-08-04T22:17:02.424Z,29.60
2022-08-04T22:19:50.134Z,29.67
2022-08-04T22:22:24.496Z,29.55
2022-08-04T22:24:53.166Z,29.41
2022-08-04T22:27:35.435Z,29.73
2022-08-04T22:30:13.424Z,29.65
2022-08-04T22:32:47.166Z,29.68
2022-08-04T22:35:38.526Z,29.64
2022-08-04T22:38:06.086Z,29.49
2022-08-04T22:40:35.858Z,29.34
2022-08-04T22:43:03.897Z,29.14
2022-08-04T22:45:53.219Z,29.16
2022-08-04T22:48:22.550Z,29.08
2022-08-04T22:50:51.498Z,28.88
2022-08-04T22:53:19.532Z,28.92
2022-08-04T22:56:06.558Z,28.80
2022-08-04T22:58:40.230Z,28.86
2022-08-04T23:01:10.650Z,28.82
2022-08-04T23:03:39.125Z,28.73
2022-08-04T23:06:10.795Z,28.64
2022-08-04T23:08:43.034Z,28.54
2022-08-04T23:11:14.888Z,28.51
2022-08-04T23:13:43.270Z,28.37
2022-08-04T23:16:13.883Z,28.49
2022-08-04T23:18:45.208Z,28.45
2022-08-04T23:21:17.623Z,28.23
2022-08-04T23:24:00.954Z,28.13
2022-08-04T23:26:31.573Z,28.27
2022-08-04T23:29:03.552Z,28.18
2022-08-04T23:31:40.889Z,28.13
2022-08-04T23:34:21.127Z,28.12
2022-08-04T23:36:50.183Z,28.18
2022-08-04T23:39:18.519Z,28.37
2022-08-04T23:41:54.643Z,28.33
2022-08-04T23:44:26.723Z,28.18
2022-08-04T23:47:00.623Z,28.48
2022-08-04T23:49:44.589Z,28.22
2022-08-04T23:52:23.069Z,28.02
2022-08-04T23:54:56.886Z,27.79
2022-08-04T23:57:30.862Z,27.97
